Atlantic Nyala — 9HYD9 — position and weather

sailwx.info

Track history (hours):
 
Tides and Currents Weather Stations Pressure Air Temp Water Temp Dewpoint Dewpoint Depression Visibility Wind Speed Wind Dir Waves Ship Positions

Atlantic Nyala

Last reported at 2014-Jul-18 04:03 UTC. Time now 2014-Jul-22 19:48 UTC.
Position N 58°36' W 006°41'.

Length 173 m; draft 9.3 m.

Type: Ship. MMSI: 249692000.

Date/timePositionNaut miles runAvg speedWind from/ knotsBaromVisibWave heightAir tempDewpointWater temp
2014-Jul-18 04:03N 58°36' W 006°41'915.4
2014-Jul-18 03:28N 58°37' W 006°24'1415.3
2014-Jul-18 02:33N 58°39' W 005°57'3114.4
2014-Jul-18 00:23N 58°43' W 004°58'1113.5
2014-Jul-17 23:33N 58°43' W 004°36'1413.9
2014-Jul-17 22:33N 58°43' W 004°10'1414.5
2014-Jul-17 21:33N 58°44' W 003°42'1615.7
2014-Jul-17 20:33N 58°43' W 003°11'1716.8
2014-Jul-17 19:33N 58°42' W 002°39'39214.0
2014-Jul-16 15:32N 57°47' E 009°38'1212.4
2014-Jul-16 14:33N 57°48' E 010°01'1212.2
2014-Jul-16 13:33N 57°48' E 010°24'1211.7
2014-Jul-16 12:33N 57°48' E 010°46'1212.1
2014-Jul-16 11:34N 57°40' E 011°03'1313.0
2014-Jul-16 10:34N 57°31' E 011°21'1413.7
2014-Jul-16 09:33N 57°19' E 011°33'1413.7
2014-Jul-16 08:33N 57°06' E 011°41'1413.4
2014-Jul-16 07:29N 56°53' E 011°50'1212.8
2014-Jul-16 06:33N 56°41' E 011°50'1614.8
2014-Jul-16 05:29N 56°27' E 011°35'2914.7
2014-Jul-16 03:31N 56°03' E 011°07'1814.0
2014-Jul-16 02:12N 55°48' E 010°49'6412.8
2014-Jul-15 21:11N 54°43' E 010°47'812.4
2014-Jul-15 20:33N 54°38' E 010°56'1313.3
2014-Jul-15 19:33N 54°34' E 011°18'1313.2
2014-Jul-15 18:34N 54°28' E 011°38'1413.8
2014-Jul-15 17:33N 54°26' E 012°02'1211.8
2014-Jul-15 16:34N 54°35' E 012°15'1414.4
2014-Jul-15 15:34N 54°45' E 012°34'1514.4
2014-Jul-15 14:33N 54°50' E 012°57'1414.4
2014-Jul-15 13:34N 54°55' E 013°21'1414.5
2014-Jul-15 12:33N 55°00' E 013°44'1414.2
2014-Jul-15 11:33N 55°07' E 014°07'1514.6
2014-Jul-15 10:33N 55°18' E 014°23'1414.2
2014-Jul-15 09:33N 55°27' E 014°41'1414.1
2014-Jul-15 08:33N 55°34' E 015°03'1414.1
2014-Jul-15 07:33N 55°41' E 015°25'1414.3
2014-Jul-15 06:33N 55°49' E 015°46'1414.4
2014-Jul-15 05:33N 55°56' E 016°08'1514.8
2014-Jul-15 04:33N 56°03' E 016°31'7214.3
2014-Jul-14 23:33N 56°46' E 018°15'1313.1
2014-Jul-14 22:33N 56°56' E 018°32'20314.2
2014-Jul-14 08:14N 59°31' E 022°39'1014.9
2014-Jul-14 07:33N 59°34' E 022°58'1515.0
2014-Jul-14 06:33N 59°39' E 023°26'1515.0
2014-Jul-14 05:34N 59°43' E 023°54'1515.0
2014-Jul-14 04:33N 59°47' E 024°23'1615.2
2014-Jul-14 03:32N 59°50' E 024°53'3015.1
2014-Jul-14 01:33N 59°57' E 025°52'1514.9
2014-Jul-14 00:34N 59°60' E 026°21'1514.7
2014-Jul-13 23:34N 60°00' E 026°50'1414.1
2014-Jul-13 22:33N 60°04' E 027°18'8712.3
2014-Jul-13 15:28N 59°53' E 030°10'1 1.0
2014-Jul-13 14:28N 59°53' E 030°12'2 0.3
2014-Jul-13 05:29N 59°55' E 030°15'0 0.0
2014-Jul-13 04:29N 59°55' E 030°15'0 0.0
2014-Jul-13 03:29N 59°55' E 030°15'0 0.0
2014-Jul-13 02:29N 59°55' E 030°15'0 0.0
2014-Jul-13 01:29N 59°55' E 030°15'0 0.0
2014-Jul-12 18:32N 59°55' E 030°15'0 0.0
2014-Jul-12 16:20N 59°55' E 030°15'0 0.0
2014-Jul-12 13:32N 59°55' E 030°15'0 0.0
2014-Jul-12 12:32N 59°55' E 030°15'0 0.0
2014-Jul-12 11:32N 59°55' E 030°15'0 0.0
2014-Jul-12 10:32N 59°55' E 030°15'0 0.0
2014-Jul-12 09:32N 59°55' E 030°15'0 0.0
2014-Jul-12 08:29N 59°55' E 030°15'0 0.0
2014-Jul-12 07:32N 59°55' E 030°15'0 0.0
2014-Jul-12 06:32N 59°55' E 030°15'0 0.0
2014-Jul-12 05:32N 59°55' E 030°15'0 0.0
2014-Jul-12 04:32N 59°55' E 030°15'0 0.0
2014-Jul-12 03:32N 59°55' E 030°15'0 0.0
2014-Jul-12 02:29N 59°55' E 030°15'0 0.0
2014-Jul-12 01:32N 59°55' E 030°15'0 0.0
2014-Jul-12 00:32N 59°55' E 030°15'0 0.0
2014-Jul-11 23:32N 59°55' E 030°15'0 0.0
2014-Jul-11 22:32N 59°55' E 030°15'0 0.0
2014-Jul-11 21:32N 59°55' E 030°15'0 0.0
2014-Jul-11 20:32N 59°55' E 030°15'0 0.0
2014-Jul-11 19:32N 59°55' E 030°15'0 0.0
2014-Jul-11 18:32N 59°55' E 030°15'0 0.0
2014-Jul-11 17:32N 59°55' E 030°15'0 0.0
2014-Jul-11 16:29N 59°55' E 030°15'0 0.0
2014-Jul-11 15:29N 59°55' E 030°15'0 0.0
2014-Jul-11 14:32N 59°55' E 030°15'0 0.0
2014-Jul-11 13:32N 59°55' E 030°15'0 0.0
2014-Jul-11 11:32N 59°55' E 030°15'0 0.0
2014-Jul-11 10:32N 59°55' E 030°15'0 0.0
2014-Jul-11 09:29N 59°55' E 030°15'0 0.0
2014-Jul-11 08:32N 59°55' E 030°15'0 0.0
2014-Jul-11 07:32N 59°55' E 030°15'0 0.0
2014-Jul-11 06:32N 59°55' E 030°15'0 0.0
2014-Jul-11 05:32N 59°55' E 030°15'0 0.0
2014-Jul-11 04:29N 59°55' E 030°15'0 0.0
2014-Jul-11 03:32N 59°55' E 030°15'0 0.0
2014-Jul-11 02:32N 59°55' E 030°15'0 0.0
2014-Jul-11 01:29N 59°55' E 030°15'0 0.0
2014-Jul-11 00:32N 59°55' E 030°15'0 0.0
2014-Jul-10 23:32N 59°55' E 030°15'0 0.0
2014-Jul-10 22:32N 59°55' E 030°15'0 0.0
2014-Jul-10 21:32N 59°55' E 030°15'0 0.0
2014-Jul-10 20:32N 59°55' E 030°15'0 0.0
2014-Jul-10 19:32N 59°55' E 030°15'0 0.0
2014-Jul-10 18:26N 59°55' E 030°15'0 0.0
2014-Jul-10 17:32N 59°55' E 030°15'0 0.0
2014-Jul-10 16:29N 59°55' E 030°15'0 0.0
2014-Jul-10 15:29N 59°55' E 030°15'0 0.0
2014-Jul-10 14:29N 59°55' E 030°15'0 0.0
2014-Jul-10 13:26N 59°55' E 030°15'0 0.0
2014-Jul-10 12:29N 59°55' E 030°15'0 0.0
2014-Jul-10 11:32N 59°55' E 030°15'0 0.0
2014-Jul-10 10:32N 59°55' E 030°15'0 0.0
2014-Jul-10 09:32N 59°55' E 030°15'0 0.0
2014-Jul-10 08:32N 59°55' E 030°15'0 0.0
2014-Jul-10 07:29N 59°55' E 030°15'0 0.0
2014-Jul-10 06:32N 59°55' E 030°15'0 0.0
2014-Jul-10 05:32N 59°55' E 030°15'0 0.0
2014-Jul-10 04:32N 59°55' E 030°15'0 0.0
2014-Jul-10 03:32N 59°55' E 030°15'0 0.0
2014-Jul-10 02:29N 59°55' E 030°15'0 0.0
2014-Jul-10 01:32N 59°55' E 030°15'0 0.0
2014-Jul-10 00:29N 59°55' E 030°15'0 0.0
2014-Jul-09 23:29N 59°55' E 030°15'0 0.0
2014-Jul-09 22:29N 59°55' E 030°15'0 0.0
2014-Jul-09 21:29N 59°55' E 030°15'0 0.0
2014-Jul-09 20:29N 59°55' E 030°15'0 0.0
2014-Jul-09 19:29N 59°55' E 030°15'0 0.0
2014-Jul-09 18:32N 59°55' E 030°15'0 0.0
2014-Jul-09 17:32N 59°55' E 030°15'0 0.0
2014-Jul-09 16:32N 59°55' E 030°15'0 0.0
2014-Jul-09 15:29N 59°55' E 030°15'0 0.0
2014-Jul-09 14:29N 59°55' E 030°15'0 0.0
2014-Jul-09 13:32N 59°55' E 030°15'0 0.0
2014-Jul-09 12:23N 59°55' E 030°15'0 0.0
2014-Jul-09 11:29N 59°55' E 030°15'0 0.0
2014-Jul-09 10:29N 59°55' E 030°15'0 0.0
2014-Jul-09 09:32N 59°55' E 030°15'0 0.0
2014-Jul-09 08:23N 59°55' E 030°15'0 0.0
2014-Jul-09 07:32N 59°55' E 030°15'0 0.0
2014-Jul-09 06:32N 59°55' E 030°15'0 0.0
2014-Jul-09 05:32N 59°55' E 030°15'0 0.0
2014-Jul-09 04:32N 59°55' E 030°15'0 0.0
2014-Jul-09 03:32N 59°55' E 030°15'0 0.0
2014-Jul-09 02:32N 59°55' E 030°15'0 0.0
2014-Jul-09 01:32N 59°55' E 030°15'0 0.0
2014-Jul-09 00:29N 59°55' E 030°15'0 0.0
2014-Jul-08 23:29N 59°55' E 030°15'0 0.0
2014-Jul-08 22:29N 59°55' E 030°15'0 0.0
2014-Jul-08 21:29N 59°55' E 030°15'0 0.0
2014-Jul-08 20:32N 59°55' E 030°15'0 0.0
2014-Jul-08 19:29N 59°55' E 030°15'0 0.0
2014-Jul-08 18:29N 59°55' E 030°15'0 0.0
2014-Jul-08 17:29N 59°55' E 030°15'0 0.0
2014-Jul-08 16:32N 59°55' E 030°15'0 0.0
2014-Jul-08 15:32N 59°55' E 030°15'0 0.0
2014-Jul-08 14:29N 59°55' E 030°15'0 0.0
2014-Jul-08 13:32N 59°55' E 030°15'2 2.0
2014-Jul-08 12:33N 59°53' E 030°13'0 0.5
2014-Jul-08 11:33N 59°54' E 030°13'0 0.0
2014-Jul-08 07:33N 59°54' E 030°13'0 0.0
2014-Jul-08 06:30N 59°54' E 030°13'0 0.0
2014-Jul-08 05:24N 59°54' E 030°13'0 0.0
2014-Jul-08 04:30N 59°54' E 030°13'  
Track history (hours):
 
Tides and Currents Weather Stations Pressure Air Temp Water Temp Dewpoint Dewpoint Depression Visibility Wind Speed Wind Dir Waves Ship Positions

Atlantic Nyala

Last reported at 2014-Jul-18 04:03 UTC. Time now 2014-Jul-22 19:48 UTC.
Position N 58°36' W 006°41'.

Length 173 m; draft 9.3 m.

Type: Ship. MMSI: 249692000.

Date/timePositionNaut miles runAvg speedWind from/ knotsBaromVisibWave heightAir tempDewpointWater temp
2014-Jul-18 04:03N 58°36' W 006°41'915.4
2014-Jul-18 03:28N 58°37' W 006°24'1415.3
2014-Jul-18 02:33N 58°39' W 005°57'3114.4
2014-Jul-18 00:23N 58°43' W 004°58'1113.5
2014-Jul-17 23:33N 58°43' W 004°36'1413.9
2014-Jul-17 22:33N 58°43' W 004°10'1414.5
2014-Jul-17 21:33N 58°44' W 003°42'1615.7
2014-Jul-17 20:33N 58°43' W 003°11'1716.8
2014-Jul-17 19:33N 58°42' W 002°39'39214.0
2014-Jul-16 15:32N 57°47' E 009°38'1212.4
2014-Jul-16 14:33N 57°48' E 010°01'1212.2
2014-Jul-16 13:33N 57°48' E 010°24'1211.7
2014-Jul-16 12:33N 57°48' E 010°46'1212.1
2014-Jul-16 11:34N 57°40' E 011°03'1313.0
2014-Jul-16 10:34N 57°31' E 011°21'1413.7
2014-Jul-16 09:33N 57°19' E 011°33'1413.7
2014-Jul-16 08:33N 57°06' E 011°41'1413.4
2014-Jul-16 07:29N 56°53' E 011°50'1212.8
2014-Jul-16 06:33N 56°41' E 011°50'1614.8
2014-Jul-16 05:29N 56°27' E 011°35'2914.7
2014-Jul-16 03:31N 56°03' E 011°07'1814.0
2014-Jul-16 02:12N 55°48' E 010°49'6412.8
2014-Jul-15 21:11N 54°43' E 010°47'812.4
2014-Jul-15 20:33N 54°38' E 010°56'1313.3
2014-Jul-15 19:33N 54°34' E 011°18'1313.2
2014-Jul-15 18:34N 54°28' E 011°38'1413.8
2014-Jul-15 17:33N 54°26' E 012°02'1211.8
2014-Jul-15 16:34N 54°35' E 012°15'1414.4
2014-Jul-15 15:34N 54°45' E 012°34'1514.4
2014-Jul-15 14:33N 54°50' E 012°57'1414.4
2014-Jul-15 13:34N 54°55' E 013°21'1414.5
2014-Jul-15 12:33N 55°00' E 013°44'1414.2
2014-Jul-15 11:33N 55°07' E 014°07'1514.6
2014-Jul-15 10:33N 55°18' E 014°23'1414.2
2014-Jul-15 09:33N 55°27' E 014°41'1414.1
2014-Jul-15 08:33N 55°34' E 015°03'1414.1
2014-Jul-15 07:33N 55°41' E 015°25'1414.3
2014-Jul-15 06:33N 55°49' E 015°46'1414.4
2014-Jul-15 05:33N 55°56' E 016°08'1514.8
2014-Jul-15 04:33N 56°03' E 016°31'7214.3
2014-Jul-14 23:33N 56°46' E 018°15'1313.1
2014-Jul-14 22:33N 56°56' E 018°32'20314.2
2014-Jul-14 08:14N 59°31' E 022°39'1014.9
2014-Jul-14 07:33N 59°34' E 022°58'1515.0
2014-Jul-14 06:33N 59°39' E 023°26'1515.0
2014-Jul-14 05:34N 59°43' E 023°54'1515.0
2014-Jul-14 04:33N 59°47' E 024°23'1615.2
2014-Jul-14 03:32N 59°50' E 024°53'3015.1
2014-Jul-14 01:33N 59°57' E 025°52'1514.9
2014-Jul-14 00:34N 59°60' E 026°21'1514.7
2014-Jul-13 23:34N 60°00' E 026°50'1414.1
2014-Jul-13 22:33N 60°04' E 027°18'8712.3
2014-Jul-13 15:28N 59°53' E 030°10'1 1.0
2014-Jul-13 14:28N 59°53' E 030°12'2 0.3
2014-Jul-13 05:29N 59°55' E 030°15'0 0.0
2014-Jul-13 04:29N 59°55' E 030°15'0 0.0
2014-Jul-13 03:29N 59°55' E 030°15'0 0.0
2014-Jul-13 02:29N 59°55' E 030°15'0 0.0
2014-Jul-13 01:29N 59°55' E 030°15'0 0.0
2014-Jul-12 18:32N 59°55' E 030°15'0 0.0
2014-Jul-12 16:20N 59°55' E 030°15'0 0.0
2014-Jul-12 13:32N 59°55' E 030°15'0 0.0
2014-Jul-12 12:32N 59°55' E 030°15'0 0.0
2014-Jul-12 11:32N 59°55' E 030°15'0 0.0
2014-Jul-12 10:32N 59°55' E 030°15'0 0.0
2014-Jul-12 09:32N 59°55' E 030°15'0 0.0
2014-Jul-12 08:29N 59°55' E 030°15'0 0.0
2014-Jul-12 07:32N 59°55' E 030°15'0 0.0
2014-Jul-12 06:32N 59°55' E 030°15'0 0.0
2014-Jul-12 05:32N 59°55' E 030°15'0 0.0
2014-Jul-12 04:32N 59°55' E 030°15'0 0.0
2014-Jul-12 03:32N 59°55' E 030°15'0 0.0
2014-Jul-12 02:29N 59°55' E 030°15'0 0.0
2014-Jul-12 01:32N 59°55' E 030°15'0 0.0
2014-Jul-12 00:32N 59°55' E 030°15'0 0.0
2014-Jul-11 23:32N 59°55' E 030°15'0 0.0
2014-Jul-11 22:32N 59°55' E 030°15'0 0.0
2014-Jul-11 21:32N 59°55' E 030°15'0 0.0
2014-Jul-11 20:32N 59°55' E 030°15'0 0.0
2014-Jul-11 19:32N 59°55' E 030°15'0 0.0
2014-Jul-11 18:32N 59°55' E 030°15'0 0.0
2014-Jul-11 17:32N 59°55' E 030°15'0 0.0
2014-Jul-11 16:29N 59°55' E 030°15'0 0.0
2014-Jul-11 15:29N 59°55' E 030°15'0 0.0
2014-Jul-11 14:32N 59°55' E 030°15'0 0.0
2014-Jul-11 13:32N 59°55' E 030°15'0 0.0
2014-Jul-11 11:32N 59°55' E 030°15'0 0.0
2014-Jul-11 10:32N 59°55' E 030°15'0 0.0
2014-Jul-11 09:29N 59°55' E 030°15'0 0.0
2014-Jul-11 08:32N 59°55' E 030°15'0 0.0
2014-Jul-11 07:32N 59°55' E 030°15'0 0.0
2014-Jul-11 06:32N 59°55' E 030°15'0 0.0
2014-Jul-11 05:32N 59°55' E 030°15'0 0.0
2014-Jul-11 04:29N 59°55' E 030°15'0 0.0
2014-Jul-11 03:32N 59°55' E 030°15'0 0.0
2014-Jul-11 02:32N 59°55' E 030°15'0 0.0
2014-Jul-11 01:29N 59°55' E 030°15'0 0.0
2014-Jul-11 00:32N 59°55' E 030°15'0 0.0
2014-Jul-10 23:32N 59°55' E 030°15'0 0.0
2014-Jul-10 22:32N 59°55' E 030°15'0 0.0
2014-Jul-10 21:32N 59°55' E 030°15'0 0.0
2014-Jul-10 20:32N 59°55' E 030°15'0 0.0
2014-Jul-10 19:32N 59°55' E 030°15'0 0.0
2014-Jul-10 18:26N 59°55' E 030°15'0 0.0
2014-Jul-10 17:32N 59°55' E 030°15'0 0.0
2014-Jul-10 16:29N 59°55' E 030°15'0 0.0
2014-Jul-10 15:29N 59°55' E 030°15'0 0.0
2014-Jul-10 14:29N 59°55' E 030°15'0 0.0
2014-Jul-10 13:26N 59°55' E 030°15'0 0.0
2014-Jul-10 12:29N 59°55' E 030°15'0 0.0
2014-Jul-10 11:32N 59°55' E 030°15'0 0.0
2014-Jul-10 10:32N 59°55' E 030°15'0 0.0
2014-Jul-10 09:32N 59°55' E 030°15'0 0.0
2014-Jul-10 08:32N 59°55' E 030°15'0 0.0
2014-Jul-10 07:29N 59°55' E 030°15'0 0.0
2014-Jul-10 06:32N 59°55' E 030°15'0 0.0
2014-Jul-10 05:32N 59°55' E 030°15'0 0.0
2014-Jul-10 04:32N 59°55' E 030°15'0 0.0
2014-Jul-10 03:32N 59°55' E 030°15'0 0.0
2014-Jul-10 02:29N 59°55' E 030°15'0 0.0
2014-Jul-10 01:32N 59°55' E 030°15'0 0.0
2014-Jul-10 00:29N 59°55' E 030°15'0 0.0
2014-Jul-09 23:29N 59°55' E 030°15'0 0.0
2014-Jul-09 22:29N 59°55' E 030°15'0 0.0
2014-Jul-09 21:29N 59°55' E 030°15'0 0.0
2014-Jul-09 20:29N 59°55' E 030°15'0 0.0
2014-Jul-09 19:29N 59°55' E 030°15'0 0.0
2014-Jul-09 18:32N 59°55' E 030°15'0 0.0
2014-Jul-09 17:32N 59°55' E 030°15'0 0.0
2014-Jul-09 16:32N 59°55' E 030°15'0 0.0
2014-Jul-09 15:29N 59°55' E 030°15'0 0.0
2014-Jul-09 14:29N 59°55' E 030°15'0 0.0
2014-Jul-09 13:32N 59°55' E 030°15'0 0.0
2014-Jul-09 12:23N 59°55' E 030°15'0 0.0
2014-Jul-09 11:29N 59°55' E 030°15'0 0.0
2014-Jul-09 10:29N 59°55' E 030°15'0 0.0
2014-Jul-09 09:32N 59°55' E 030°15'0 0.0
2014-Jul-09 08:23N 59°55' E 030°15'0 0.0
2014-Jul-09 07:32N 59°55' E 030°15'0 0.0
2014-Jul-09 06:32N 59°55' E 030°15'0 0.0
2014-Jul-09 05:32N 59°55' E 030°15'0 0.0
2014-Jul-09 04:32N 59°55' E 030°15'0 0.0
2014-Jul-09 03:32N 59°55' E 030°15'0 0.0
2014-Jul-09 02:32N 59°55' E 030°15'0 0.0
2014-Jul-09 01:32N 59°55' E 030°15'0 0.0
2014-Jul-09 00:29N 59°55' E 030°15'0 0.0
2014-Jul-08 23:29N 59°55' E 030°15'0 0.0
2014-Jul-08 22:29N 59°55' E 030°15'0 0.0
2014-Jul-08 21:29N 59°55' E 030°15'0 0.0
2014-Jul-08 20:32N 59°55' E 030°15'0 0.0
2014-Jul-08 19:29N 59°55' E 030°15'0 0.0
2014-Jul-08 18:29N 59°55' E 030°15'0 0.0
2014-Jul-08 17:29N 59°55' E 030°15'0 0.0
2014-Jul-08 16:32N 59°55' E 030°15'0 0.0
2014-Jul-08 15:32N 59°55' E 030°15'0 0.0
2014-Jul-08 14:29N 59°55' E 030°15'0 0.0
2014-Jul-08 13:32N 59°55' E 030°15'2 2.0
2014-Jul-08 12:33N 59°53' E 030°13'0 0.5
2014-Jul-08 11:33N 59°54' E 030°13'0 0.0
2014-Jul-08 07:33N 59°54' E 030°13'0 0.0
2014-Jul-08 06:30N 59°54' E 030°13'0 0.0
2014-Jul-08 05:24N 59°54' E 030°13'0 0.0
2014-Jul-08 04:30N 59°54' E 030°13'  

Dump ship's entire track history